createdAt,value
2018-08-23T00:01:24.093Z,101496.17
2018-08-23T00:03:53.088Z,101497.53
2018-08-23T00:06:21.997Z,101500.25
2018-08-23T00:08:51.584Z,101492.72
2018-08-23T00:11:23.537Z,101491.83
2018-08-23T00:13:52.505Z,101487.99
2018-08-23T00:16:32.980Z,101490.74
2018-08-23T00:19:02.727Z,101484.67
2018-08-23T00:21:31.691Z,101484.92
2018-08-23T00:24:06.199Z,101481.34
2018-08-23T00:26:35.930Z,101479.47
2018-08-23T00:29:09.457Z,101481.94
2018-08-23T00:31:38.947Z,101476.00
2018-08-23T00:34:08.227Z,101472.32
2018-08-23T00:36:37.655Z,101477.60
2018-08-23T00:39:07.975Z,101475.91
2018-08-23T00:41:36.866Z,101473.77
2018-08-23T00:44:05.770Z,101468.22
2018-08-23T00:46:34.897Z,101464.41
2018-08-23T00:49:03.790Z,101462.16
2018-08-23T00:51:36.426Z,101461.18
2018-08-23T00:54:05.434Z,101456.98
2018-08-23T00:56:34.317Z,101458.09
2018-08-23T00:59:03.935Z,101453.76
2018-08-23T01:01:33.507Z,101462.03
2018-08-23T01:04:02.438Z,101459.19
2018-08-23T01:06:39.339Z,101454.88
2018-08-23T01:09:09.727Z,101447.47
2018-08-23T01:11:38.643Z,101447.09
2018-08-23T01:14:07.790Z,101444.72
2018-08-23T01:16:36.790Z,101445.22
2018-08-23T01:19:10.940Z,101444.88
2018-08-23T01:21:49.788Z,101440.91
2018-08-23T01:24:18.712Z,101441.88
2018-08-23T01:26:47.598Z,101442.50
2018-08-23T01:29:27.096Z,101440.67
2018-08-23T01:32:02.865Z,101435.09
2018-08-23T01:34:31.742Z,101436.45
2018-08-23T01:37:00.652Z,101433.49
2018-08-23T01:39:29.538Z,101432.75
2018-08-23T01:41:58.472Z,101437.33
2018-08-23T01:44:31.548Z,101431.16
2018-08-23T01:47:01.822Z,101423.23
2018-08-23T01:49:30.726Z,101427.92
2018-08-23T01:51:59.626Z,101431.77
2018-08-23T01:54:28.544Z,101425.45
2018-08-23T01:56:57.509Z,101423.95
2018-08-23T01:59:26.503Z,101420.16
2018-08-23T02:01:55.482Z,101419.25
2018-08-23T02:04:24.458Z,101422.73
2018-08-23T02:06:53.360Z,101414.45
2018-08-23T02:09:22.220Z,101415.82
2018-08-23T02:11:51.214Z,101410.88
2018-08-23T02:14:20.154Z,101412.36
2018-08-23T02:16:51.944Z,101412.12
2018-08-23T02:19:21.887Z,101412.47
2018-08-23T02:21:50.778Z,101414.58
2018-08-23T02:24:23.852Z,101416.95
2018-08-23T02:26:52.882Z,101409.02
2018-08-23T02:29:33.126Z,101408.39
2018-08-23T02:32:02.077Z,101407.02
2018-08-23T02:34:35.159Z,101403.34
2018-08-23T02:37:04.168Z,101402.20
2018-08-23T02:39:33.189Z,101397.03
2018-08-23T02:42:02.076Z,101398.39
2018-08-23T02:44:31.026Z,101394.94
2018-08-23T02:47:01.970Z,101394.94
2018-08-23T02:49:31.506Z,101387.09
2018-08-23T02:52:00.833Z,101392.58
2018-08-23T02:54:29.814Z,101387.04
2018-08-23T02:56:59.543Z,101389.14
2018-08-23T02:59:29.117Z,101381.95
2018-08-23T03:01:57.995Z,101381.48
2018-08-23T03:04:27.903Z,101383.93
2018-08-23T03:06:59.045Z,101380.98
2018-08-23T03:09:29.649Z,101380.10
2018-08-23T03:12:01.759Z,101379.48
2018-08-23T03:14:31.187Z,101370.33
2018-08-23T03:17:21.449Z,101369.85
2018-08-23T03:20:10.333Z,101365.78
2018-08-23T03:22:39.847Z,101357.86
2018-08-23T03:25:10.370Z,101354.90
2018-08-23T03:27:39.275Z,101351.56
2018-08-23T03:30:10.521Z,101353.19
2018-08-23T03:32:39.489Z,101350.09
2018-08-23T03:35:08.358Z,101348.61
2018-08-23T03:37:37.279Z,101355.04
2018-08-23T03:40:06.845Z,101351.81
2018-08-23T03:42:35.797Z,101349.34
2018-08-23T03:45:04.807Z,101347.61
2018-08-23T03:47:39.400Z,101345.39
2018-08-23T03:50:09.504Z,101340.56
2018-08-23T03:52:39.572Z,101341.06
2018-08-23T03:55:09.553Z,101338.47
2018-08-23T03:57:43.863Z,101337.97
2018-08-23T04:00:12.801Z,101329.06
2018-08-23T04:02:41.704Z,101330.30
2018-08-23T04:05:16.015Z,101322.16
2018-08-23T04:07:44.944Z,101322.77
2018-08-23T04:10:13.864Z,101323.86
2018-08-23T04:12:43.754Z,101324.38
2018-08-23T04:15:21.524Z,101325.10
2018-08-23T04:17:50.747Z,101322.39
2018-08-23T04:20:19.659Z,101327.11
2018-08-23T04:22:48.612Z,101321.67
2018-08-23T04:25:17.531Z,101324.28
2018-08-23T04:27:46.400Z,101318.09
2018-08-23T04:33:02.272Z,101319.55
2018-08-23T04:35:31.176Z,101321.41
2018-08-23T04:38:00.154Z,101323.48
2018-08-23T04:40:29.149Z,101322.63
2018-08-23T04:42:58.151Z,101323.48
2018-08-23T04:45:28.085Z,101325.10
2018-08-23T04:48:02.202Z,101323.24
2018-08-23T04:50:31.155Z,101323.62
2018-08-23T04:53:00.130Z,101319.91
2018-08-23T04:55:29.171Z,101319.55
2018-08-23T04:57:59.122Z,101311.13
2018-08-23T05:00:28.753Z,101315.47
2018-08-23T05:02:57.756Z,101315.09
2018-08-23T05:05:26.778Z,101312.53
2018-08-23T05:07:55.692Z,101308.19
2018-08-23T05:10:24.627Z,101310.16
2018-08-23T05:12:53.514Z,101302.52
2018-08-23T05:15:22.565Z,101309.31
2018-08-23T05:17:51.455Z,101306.59
2018-08-23T05:20:20.494Z,101307.56
2018-08-23T05:22:54.684Z,101306.09
2018-08-23T05:25:24.235Z,101311.36
2018-08-23T05:28:07.069Z,101306.94
2018-08-23T05:30:36.017Z,101308.18
2018-08-23T05:33:11.089Z,101309.19
2018-08-23T05:35:40.008Z,101303.88
2018-08-23T05:38:09.761Z,101306.58
2018-08-23T05:40:45.964Z,101304.87
2018-08-23T05:43:15.607Z,101300.30
2018-08-23T05:45:49.448Z,101304.22
2018-08-23T05:48:24.389Z,101306.84
2018-08-23T05:50:53.291Z,101297.59
2018-08-23T05:53:22.226Z,101295.61
2018-08-23T05:55:52.692Z,101294.72
2018-08-23T05:58:25.327Z,101287.56
2018-08-23T06:00:54.412Z,101286.59
2018-08-23T06:03:23.355Z,101288.69
2018-08-23T06:05:52.640Z,101283.11
2018-08-23T06:08:21.641Z,101283.89
2018-08-23T06:10:53.434Z,101285.08
2018-08-23T06:13:22.365Z,101287.69
2018-08-23T06:15:57.535Z,101294.12
2018-08-23T06:18:27.343Z,101294.62
2018-08-23T06:20:56.284Z,101297.94
2018-08-23T06:23:31.937Z,101295.11
2018-08-23T06:26:00.857Z,101295.85
2018-08-23T06:28:29.823Z,101297.59
2018-08-23T06:30:59.884Z,101300.20
2018-08-23T06:33:36.859Z,101294.25
2018-08-23T06:36:06.415Z,101289.17
2018-08-23T06:38:36.111Z,101286.09
2018-08-23T06:41:06.442Z,101293.98
2018-08-23T06:43:35.600Z,101292.73
2018-08-23T06:46:05.056Z,101284.61
2018-08-23T06:48:34.032Z,101286.46
2018-08-23T06:51:03.929Z,101277.30
2018-08-23T06:53:46.950Z,101275.56
2018-08-23T06:56:16.816Z,101282.48
2018-08-23T06:58:45.723Z,101278.37
2018-08-23T07:01:31.245Z,101279.48
2018-08-23T07:04:04.939Z,101267.70
2018-08-23T07:06:35.154Z,101268.77
2018-08-23T07:09:06.774Z,101275.07
2018-08-23T07:11:35.766Z,101273.58
2018-08-23T07:14:09.910Z,101278.14
2018-08-23T07:16:38.848Z,101276.68
2018-08-23T07:19:22.160Z,101281.24
2018-08-23T07:21:52.116Z,101282.85
2018-08-23T07:24:36.432Z,101281.91
2018-08-23T07:27:07.015Z,101275.02
2018-08-23T07:29:35.987Z,101284.33
2018-08-23T07:32:06.683Z,101284.19
2018-08-23T07:34:35.865Z,101277.98
2018-08-23T07:37:15.004Z,101273.27
2018-08-23T07:39:48.118Z,101275.32
2018-08-23T07:42:22.623Z,101274.92
2018-08-23T07:44:57.869Z,101275.42
2018-08-23T07:47:27.016Z,101272.70
2018-08-23T07:49:57.020Z,101270.91
2018-08-23T07:52:27.223Z,101272.56
2018-08-23T07:54:56.236Z,101259.45
2018-08-23T07:57:25.213Z,101270.51
2018-08-23T07:59:57.275Z,101269.25
2018-08-23T08:02:27.679Z,101264.86
2018-08-23T08:04:57.154Z,101265.23
2018-08-23T08:07:28.304Z,101270.18
2018-08-23T08:10:03.056Z,101276.83
2018-08-23T08:12:40.480Z,101285.69
2018-08-23T08:15:11.986Z,101282.41
2018-08-23T08:17:40.818Z,101276.36
2018-08-23T08:20:10.882Z,101282.75
2018-08-23T08:22:39.924Z,101281.17
2018-08-23T08:25:11.197Z,101275.86
2018-08-23T08:27:40.532Z,101284.94
2018-08-23T08:30:11.298Z,101282.02
2018-08-23T08:32:45.017Z,101276.70
2018-08-23T08:35:18.050Z,101276.88
2018-08-23T08:37:48.176Z,101281.56
2018-08-23T08:40:24.060Z,101284.66
2018-08-23T08:42:53.128Z,101290.20
2018-08-23T08:45:23.455Z,101278.47
2018-08-23T08:47:52.414Z,101276.73
2018-08-23T08:50:26.914Z,101277.17
2018-08-23T08:52:56.022Z,101280.43
2018-08-23T08:55:24.996Z,101276.95
2018-08-23T08:57:53.960Z,101278.28
2018-08-23T09:00:23.952Z,101279.55
2018-08-23T09:02:52.929Z,101284.03
2018-08-23T09:05:27.466Z,101279.34
2018-08-23T09:07:56.418Z,101271.55
2018-08-23T09:10:25.395Z,101277.65
2018-08-23T09:12:54.323Z,101275.56
2018-08-23T09:15:23.317Z,101280.05
2018-08-23T09:17:52.205Z,101277.58
2018-08-23T09:20:21.183Z,101274.09
2018-08-23T09:22:52.866Z,101280.14
2018-08-23T09:25:24.252Z,101275.62
2018-08-23T09:27:53.316Z,101275.88
2018-08-23T09:30:29.520Z,101278.85
2018-08-23T09:33:02.630Z,101275.66
2018-08-23T09:35:32.704Z,101268.91
2018-08-23T09:38:09.573Z,101267.11
2018-08-23T09:40:39.520Z,101267.55
2018-08-23T09:43:08.652Z,101262.91
2018-08-23T09:45:38.371Z,101266.40
2018-08-23T09:48:07.360Z,101268.73
2018-08-23T09:50:36.440Z,101267.46
2018-08-23T09:53:11.129Z,101262.19
2018-08-23T09:55:40.087Z,101259.55
2018-08-23T09:58:42.682Z,101254.88
2018-08-23T10:01:16.939Z,101257.67
2018-08-23T10:03:51.144Z,101256.48
2018-08-23T10:06:22.013Z,101262.01
2018-08-23T10:09:02.144Z,101249.75
2018-08-23T10:11:36.716Z,101254.66
2018-08-23T10:14:10.664Z,101250.13
2018-08-23T10:16:45.070Z,101243.77
2018-08-23T10:19:19.361Z,101240.47
2018-08-23T10:21:53.710Z,101243.55
2018-08-23T10:24:26.438Z,101239.67
2018-08-23T10:26:55.379Z,101243.33
2018-08-23T10:29:24.309Z,101245.67
2018-08-23T10:31:53.328Z,101244.14
2018-08-23T10:34:22.352Z,101238.14
2018-08-23T10:36:51.224Z,101248.40
2018-08-23T10:39:20.160Z,101243.33
2018-08-23T10:41:49.050Z,101244.87
2018-08-23T10:44:18.102Z,101244.98
2018-08-23T10:46:52.436Z,101237.11
2018-08-23T10:49:21.373Z,101239.97
2018-08-23T10:51:50.283Z,101242.69
2018-08-23T10:54:19.276Z,101234.70
2018-08-23T10:56:48.205Z,101237.30
2018-08-23T10:59:17.159Z,101239.05
2018-08-23T11:01:46.121Z,101236.60
2018-08-23T11:04:15.040Z,101233.87
2018-08-23T11:06:49.346Z,101232.52
2018-08-23T11:09:23.805Z,101231.47
2018-08-23T11:11:52.699Z,101231.88
2018-08-23T11:14:27.020Z,101221.16
2018-08-23T11:17:01.343Z,101222.42
2018-08-23T11:19:35.424Z,101215.34
2018-08-23T11:22:04.390Z,101221.89
2018-08-23T11:24:33.286Z,101224.30
2018-08-23T11:27:02.345Z,101218.16
2018-08-23T11:29:31.295Z,101218.74
2018-08-23T11:32:00.179Z,101221.52
2018-08-23T11:34:29.128Z,101222.89
2018-08-23T11:36:58.115Z,101220.48
2018-08-23T11:39:27.155Z,101231.06
2018-08-23T11:41:56.153Z,101217.28
2018-08-23T11:44:25.034Z,101219.63
2018-08-23T11:46:54.463Z,101214.39
2018-08-23T11:49:23.011Z,101211.84
2018-08-23T11:51:51.922Z,101214.20
2018-08-23T11:54:20.860Z,101208.99
2018-08-23T11:56:49.799Z,101207.83
2018-08-23T11:59:18.769Z,101219.44
2018-08-23T12:01:47.637Z,101207.96
2018-08-23T12:04:16.599Z,101209.58
2018-08-23T12:06:45.492Z,101206.84
2018-08-23T12:09:14.432Z,101209.72
2018-08-23T12:11:43.321Z,101199.45
2018-08-23T12:14:12.244Z,101201.06
2018-08-23T12:16:41.177Z,101212.95
2018-08-23T12:19:10.095Z,101200.61
2018-08-23T12:21:38.995Z,101201.19
2018-08-23T12:24:07.916Z,101202.92
2018-08-23T12:26:36.893Z,101201.29
2018-08-23T12:29:09.696Z,101206.44
2018-08-23T12:31:39.209Z,101202.86
2018-08-23T12:34:09.274Z,101198.12
2018-08-23T12:36:43.448Z,101198.12
2018-08-23T12:39:17.719Z,101189.93
2018-08-23T12:41:51.974Z,101198.45
2018-08-23T12:44:20.867Z,101182.33
2018-08-23T12:46:53.936Z,101178.50
2018-08-23T12:49:22.980Z,101172.98
2018-08-23T12:51:51.819Z,101179.09
2018-08-23T12:54:20.723Z,101182.14
2018-08-23T12:56:49.637Z,101180.50
2018-08-23T12:59:18.569Z,101171.16
2018-08-23T13:01:47.613Z,101177.23
2018-08-23T13:04:16.461Z,101180.06
2018-08-23T13:06:45.420Z,101180.34
2018-08-23T13:09:14.985Z,101177.14
2018-08-23T13:11:43.858Z,101174.79
2018-08-23T13:14:12.794Z,101169.28
2018-08-23T13:16:42.409Z,101165.70
2018-08-23T13:19:12.025Z,101168.36
2018-08-23T13:21:40.969Z,101160.08
2018-08-23T13:24:10.914Z,101159.23
2018-08-23T13:26:46.233Z,101162.11
2018-08-23T13:29:15.388Z,101163.82
2018-08-23T13:31:44.329Z,101157.80
2018-08-23T13:34:14.412Z,101150.59
2018-08-23T13:36:44.459Z,101158.36
2018-08-23T13:39:14.133Z,101156.28
2018-08-23T13:41:43.107Z,101159.50
2018-08-23T13:44:13.049Z,101158.13
2018-08-23T13:46:41.973Z,101155.45
2018-08-23T13:49:11.039Z,101155.63
2018-08-23T13:51:39.951Z,101157.48
2018-08-23T13:54:09.017Z,101154.04
2018-08-23T13:56:38.003Z,101152.53
2018-08-23T13:59:07.416Z,101150.00
2018-08-23T14:01:36.277Z,101147.45
2018-08-23T14:04:05.200Z,101142.33
2018-08-23T14:06:35.123Z,101138.80
2018-08-23T14:09:05.123Z,101133.48
2018-08-23T14:11:36.069Z,101132.35
2018-08-23T14:14:05.027Z,101125.86
2018-08-23T14:16:33.928Z,101120.69
2018-08-23T14:19:02.885Z,101123.22
2018-08-23T14:21:31.892Z,101126.58
2018-08-23T14:24:00.899Z,101122.48
2018-08-23T14:26:29.896Z,101118.95
2018-08-23T14:28:59.917Z,101118.58
2018-08-23T14:31:30.939Z,101116.79
2018-08-23T14:34:00.166Z,101116.36
2018-08-23T14:36:29.213Z,101107.66
2018-08-23T14:38:58.282Z,101101.25
2018-08-23T14:41:27.199Z,101093.48
2018-08-23T14:43:56.077Z,101093.86
2018-08-23T14:46:30.240Z,101101.81
2018-08-23T14:48:59.231Z,101090.19
2018-08-23T14:51:28.199Z,101091.03
2018-08-23T14:53:57.095Z,101093.11
2018-08-23T14:56:31.455Z,101093.63
2018-08-23T14:59:00.447Z,101097.68
2018-08-23T15:01:29.435Z,101086.14
2018-08-23T15:03:58.289Z,101087.22
2018-08-23T15:06:27.462Z,101086.98
2018-08-23T15:09:01.039Z,101081.06
2018-08-23T15:11:30.356Z,101075.09
2018-08-23T15:13:59.360Z,101080.07
2018-08-23T15:16:28.460Z,101064.55
2018-08-23T15:18:57.744Z,101065.77
2018-08-23T15:21:26.890Z,101058.95
2018-08-23T15:23:57.189Z,101058.02
2018-08-23T15:26:27.218Z,101059.89
2018-08-23T15:28:58.253Z,101055.00
2018-08-23T15:31:27.410Z,101029.40
2018-08-23T15:33:56.624Z,101051.55
2018-08-23T15:36:25.956Z,101053.91
2018-08-23T15:38:55.504Z,101058.09
2018-08-23T15:41:27.617Z,101055.27
2018-08-23T15:44:01.493Z,101059.92
2018-08-23T15:46:35.935Z,101058.29
2018-08-23T15:49:05.033Z,101059.27
2018-08-23T15:51:35.211Z,101057.20
2018-08-23T15:54:04.407Z,101068.84
2018-08-23T15:56:34.563Z,101066.11
2018-08-23T15:59:05.650Z,101059.64
2018-08-23T16:04:33.141Z,101058.59
2018-08-23T16:07:02.073Z,101046.63
2018-08-23T16:09:33.038Z,101053.30
2018-08-23T16:12:02.008Z,101055.09
2018-08-23T16:14:30.955Z,101054.01
2018-08-23T16:17:05.295Z,101058.81
2018-08-23T16:19:39.709Z,101051.46
2018-08-23T16:22:08.722Z,101049.24
2018-08-23T16:24:37.721Z,101053.25
2018-08-23T16:27:12.316Z,101047.22
2018-08-23T16:29:51.130Z,101044.09
2018-08-23T16:32:26.416Z,101037.05
2018-08-23T16:35:00.836Z,101039.84
2018-08-23T16:37:30.794Z,101031.17
2018-08-23T16:40:00.085Z,101033.33
2018-08-23T16:42:29.155Z,101033.19
2018-08-23T16:44:58.115Z,101031.38
2018-08-23T16:47:27.133Z,101027.00
2018-08-23T16:50:00.260Z,101025.03
2018-08-23T16:52:29.226Z,101021.11
2018-08-23T16:54:58.245Z,101022.53
2018-08-23T17:00:05.333Z,101018.44
2018-08-23T17:02:34.610Z,101021.59
2018-08-23T17:18:49.085Z,101013.73
2018-08-23T17:21:30.588Z,101004.98
2018-08-23T17:24:13.775Z,101005.16
2018-08-23T17:26:43.599Z,101007.14
2018-08-23T17:29:12.686Z,101010.33
2018-08-23T17:31:45.458Z,101006.80
2018-08-23T17:34:16.509Z,100999.80
2018-08-23T17:36:57.687Z,100999.02
2018-08-23T17:39:37.345Z,100999.80
2018-08-23T17:45:28.347Z,101004.94
2018-08-23T17:47:57.310Z,101001.51
2018-08-23T17:50:26.263Z,100994.06
2018-08-23T17:52:55.207Z,100998.12
2018-08-23T17:55:24.104Z,101001.67
2018-08-23T17:57:53.216Z,101009.94
2018-08-23T18:00:22.188Z,101006.77
2018-08-23T18:02:51.088Z,101010.92
2018-08-23T18:05:20.055Z,101015.38
2018-08-23T18:07:49.020Z,101019.94
2018-08-23T18:10:18.123Z,101021.47
2018-08-23T18:12:47.251Z,101013.84
2018-08-23T18:15:16.233Z,101018.58
2018-08-23T18:17:45.197Z,101016.69
2018-08-23T18:20:14.104Z,101016.88
2018-08-23T18:22:43.277Z,101019.92
2018-08-23T18:25:12.223Z,101008.85
2018-08-23T18:27:47.899Z,101012.41
2018-08-23T18:30:17.217Z,101015.48
2018-08-23T18:32:46.168Z,101017.91
2018-08-23T18:39:53.386Z,101022.55
2018-08-23T18:42:22.358Z,101017.56
2018-08-23T18:44:51.975Z,101019.98
2018-08-23T18:47:27.569Z,101026.56
2018-08-23T18:50:01.954Z,101029.35
2018-08-23T18:52:31.025Z,101031.84
2018-08-23T18:54:59.978Z,101042.48
2018-08-23T18:57:29.308Z,101041.46
2018-08-23T18:59:59.199Z,101050.09
2018-08-23T19:02:28.076Z,101053.18
2018-08-23T19:04:57.000Z,101054.03
2018-08-23T19:07:45.549Z,101057.39
2018-08-23T19:10:14.528Z,101054.76
2018-08-23T19:12:43.485Z,101055.02
2018-08-23T19:15:12.362Z,101058.33
2018-08-23T19:23:46.413Z,101071.51
2018-08-23T19:26:15.479Z,101070.66
2018-08-23T19:28:44.363Z,101078.53
2018-08-23T19:31:13.529Z,101081.37
2018-08-23T19:33:42.410Z,101077.08
2018-08-23T19:36:11.341Z,101080.34
2018-08-23T19:38:40.327Z,101075.92
2018-08-23T19:41:09.353Z,101069.62
2018-08-23T19:43:38.264Z,101071.88
2018-08-23T19:46:12.497Z,101059.17
2018-08-23T19:48:41.980Z,101053.06
2018-08-23T19:51:10.949Z,101053.15
2018-08-23T19:53:40.024Z,101054.53
2018-08-23T19:56:08.916Z,101056.30
2018-08-23T19:58:37.934Z,101066.38
2018-08-23T20:01:06.917Z,101061.83
2018-08-23T20:03:35.863Z,101074.44
2018-08-23T20:06:04.843Z,101079.53
2018-08-23T20:08:33.852Z,101083.16
2018-08-23T20:11:02.978Z,101082.80
2018-08-23T20:13:37.450Z,101085.63
2018-08-23T20:16:11.922Z,101096.92
2018-08-23T20:18:40.983Z,101096.63
2018-08-23T20:21:09.896Z,101098.83
2018-08-23T20:23:38.988Z,101097.61
2018-08-23T20:26:08.921Z,101091.80
2018-08-23T20:28:37.909Z,101096.66
2018-08-23T20:31:07.063Z,101101.52
2018-08-23T20:33:36.079Z,101089.60
2018-08-23T20:36:05.030Z,101086.99
2018-08-23T20:38:36.073Z,101086.38
2018-08-23T20:41:05.207Z,101096.70
2018-08-23T20:43:34.380Z,101099.42
2018-08-23T20:46:03.314Z,101098.00
2018-08-23T20:48:32.248Z,101102.29
2018-08-23T20:51:01.189Z,101106.00
2018-08-23T20:53:30.108Z,101101.33
2018-08-23T20:55:59.062Z,101094.30
2018-08-23T20:58:27.984Z,101098.85
2018-08-23T21:00:57.891Z,101097.73
2018-08-23T21:03:26.828Z,101097.47
2018-08-23T21:05:55.780Z,101097.87
2018-08-23T21:08:24.711Z,101100.71
2018-08-23T21:10:53.632Z,101093.67
2018-08-23T21:13:22.605Z,101088.50
2018-08-23T21:15:51.524Z,101092.67
2018-08-23T21:18:20.431Z,101100.44
2018-08-23T21:20:49.353Z,101097.70
2018-08-23T21:23:18.336Z,101104.13
2018-08-23T21:25:47.295Z,101097.58
2018-08-23T21:28:16.212Z,101105.47
2018-08-23T21:30:45.156Z,101102.90
2018-08-23T21:33:14.140Z,101099.34
2018-08-23T21:35:43.028Z,101099.36
2018-08-23T21:38:12.008Z,101096.16
2018-08-23T21:40:40.935Z,101104.19
2018-08-23T21:43:09.912Z,101106.14
2018-08-23T21:45:38.799Z,101095.37
2018-08-23T21:48:08.082Z,101088.87
2018-08-23T21:50:37.052Z,101091.91
2018-08-23T21:53:06.031Z,101090.81
2018-08-23T21:55:37.653Z,101092.66
2018-08-23T21:58:08.205Z,101086.88
2018-08-23T22:00:42.366Z,101086.59
2018-08-23T22:03:12.128Z,101080.94
2018-08-23T22:05:41.710Z,101081.91
2018-08-23T22:08:10.956Z,101078.60
2018-08-23T22:10:39.901Z,101079.96
2018-08-23T22:13:08.798Z,101072.67
2018-08-23T22:15:43.076Z,101068.23
2018-08-23T22:18:12.004Z,101068.11
2018-08-23T22:20:40.973Z,101070.32
2018-08-23T22:23:09.898Z,101067.87
2018-08-23T22:25:39.361Z,101063.81
2018-08-23T22:28:08.684Z,101068.49
2018-08-23T22:30:38.626Z,101063.53
2018-08-23T22:33:08.032Z,101057.96
2018-08-23T22:35:37.001Z,101059.20
2018-08-23T22:38:06.378Z,101056.70
2018-08-23T22:40:35.404Z,101054.76
2018-08-23T22:43:04.287Z,101050.92
2018-08-23T22:45:33.217Z,101047.37
2018-08-23T22:48:02.095Z,101051.80
2018-08-23T22:50:31.024Z,101046.27
2018-08-23T22:53:00.015Z,101049.48
2018-08-23T22:55:28.969Z,101041.58
2018-08-23T22:57:57.876Z,101036.91
2018-08-23T23:00:32.107Z,101037.01
2018-08-23T23:03:01.032Z,101036.73
2018-08-23T23:05:30.059Z,101019.34
2018-08-23T23:08:04.147Z,101026.95
2018-08-23T23:10:33.064Z,101017.08
2018-08-23T23:13:01.967Z,101016.16
2018-08-23T23:15:30.884Z,101022.59
2018-08-23T23:17:59.784Z,101017.32
2018-08-23T23:20:28.689Z,101017.69
2018-08-23T23:22:57.644Z,101010.03
2018-08-23T23:25:26.696Z,101017.23
2018-08-23T23:27:55.601Z,101009.42
2018-08-23T23:30:24.488Z,101012.91
2018-08-23T23:32:53.431Z,101005.01
2018-08-23T23:35:22.329Z,101009.84
2018-08-23T23:37:51.230Z,100998.72
2018-08-23T23:40:20.140Z,100990.81
2018-08-23T23:42:49.068Z,100992.05
2018-08-23T23:45:18.010Z,100991.54
2018-08-23T23:47:46.930Z,100990.57
2018-08-23T23:50:15.816Z,100980.85
2018-08-23T23:52:44.712Z,100977.27
2018-08-23T23:55:13.617Z,100973.70
2018-08-23T23:57:42.552Z,100976.65
